Time;durP1;ratioP1;P1;durP2;ratioP2;P2;SDS_P1;SDS_P2;PMS_P1;PMS_P2;Temp;Humidity;BMP_temperature;BMP_pressure;BME280_temperature;BME280_humidity;BME280_pressure;Samples;Min_cycle;Max_cycle;Signal;HPM_P1;HPM_P2
2022/06/28 00:01:51;;;;;;;64.13;47.72;;;27.60;99.90;;;;;;5054533;28;20104;-64
2022/06/28 00:04:19;;;;;;;65.57;45.65;;;27.70;99.90;;;;;;5054621;28;20017;-64
2022/06/28 00:06:47;;;;;;;66.30;45.92;;;27.80;99.90;;;;;;5054451;28;20025;-69
2022/06/28 00:09:14;;;;;;;57.28;38.70;;;27.80;99.90;;;;;;5054288;28;20130;-68
2022/06/28 00:11:42;;;;;;;58.00;39.78;;;27.80;99.90;;;;;;5054362;28;20055;-70
2022/06/28 00:16:58;;;;;;;51.35;36.65;;;27.90;99.90;;;;;;5054202;28;20028;-69
2022/06/28 00:19:25;;;;;;;59.90;36.70;;;28.00;99.90;;;;;;5054065;28;20500;-69
2022/06/28 00:21:52;;;;;;;59.35;35.42;;;28.00;99.90;;;;;;5053016;28;20078;-69
2022/06/28 00:24:19;;;;;;;50.25;35.17;;;28.00;99.90;;;;;;5053889;28;20021;-69
2022/06/28 00:26:46;;;;;;;314.48;271.63;;;28.00;99.90;;;;;;5053380;28;20099;-68
2022/06/28 00:29:13;;;;;;;81.95;57.75;;;28.10;99.90;;;;;;5053525;28;20028;-69
2022/06/28 00:31:40;;;;;;;99.72;73.88;;;28.10;99.90;;;;;;5053758;28;20055;-68
2022/06/28 00:34:06;;;;;;;68.40;50.17;;;28.10;99.90;;;;;;5053513;28;20068;-67
2022/06/28 00:36:33;;;;;;;47.83;35.88;;;28.10;99.90;;;;;;5053759;28;20082;-68
2022/06/28 00:39:00;;;;;;;64.40;49.05;;;28.10;99.90;;;;;;5053945;28;20024;-68
2022/06/28 00:41:28;;;;;;;53.53;36.58;;;28.10;99.90;;;;;;5053916;28;20025;-69
2022/06/28 00:43:55;;;;;;;55.15;37.50;;;28.10;99.90;;;;;;5053666;28;20516;-68
2022/06/28 00:46:23;;;;;;;55.55;36.08;;;28.10;99.90;;;;;;5053744;28;20603;-69
2022/06/28 00:48:49;;;;;;;46.63;31.75;;;28.10;99.90;;;;;;5053795;28;20355;-68
2022/06/28 00:51:17;;;;;;;57.17;42.47;;;28.10;99.90;;;;;;5053625;28;20028;-67
2022/06/28 00:53:44;;;;;;;48.35;36.47;;;28.20;99.90;;;;;;5053732;28;20029;-67
2022/06/28 00:56:10;;;;;;;39.03;29.70;;;28.20;99.90;;;;;;5053741;28;20139;-68
2022/06/28 00:58:37;;;;;;;47.10;33.40;;;28.10;99.90;;;;;;5053348;28;20025;-69
2022/06/28 01:01:04;;;;;;;47.08;34.97;;;28.10;99.90;;;;;;5053633;28;20032;-68
2022/06/28 01:03:49;;;;;;;38.95;28.50;;;28.10;99.90;;;;;;5054463;28;20080;-69
2022/06/28 01:06:15;;;;;;;42.70;30.17;;;28.20;99.90;;;;;;5058327;28;20025;-69
2022/06/28 01:08:45;;;;;;;37.92;29.05;;;28.30;99.90;;;;;;5033560;28;20092;-69
2022/06/28 01:11:23;;;;;;;44.72;32.28;;;28.30;99.90;;;;;;5033436;28;20021;-68
2022/06/28 01:13:52;;;;;;;45.33;31.25;;;28.40;99.90;;;;;;5058352;28;20477;-70
2022/06/28 01:16:21;;;;;;;41.00;28.60;;;28.50;99.90;;;;;;5073477;28;20020;-69
2022/06/28 01:18:48;;;;;;;33.17;26.40;;;28.50;99.90;;;;;;5073264;28;20020;-69
2022/06/28 01:21:17;;;;;;;35.63;25.88;;;28.50;99.90;;;;;;5073251;28;20363;-68
2022/06/28 01:23:45;;;;;;;40.00;27.75;;;28.50;99.90;;;;;;5073299;28;20107;-69
2022/06/28 01:26:14;;;;;;;49.15;29.58;;;28.60;99.90;;;;;;5073152;28;20020;-69
2022/06/28 01:28:42;;;;;;;39.55;27.23;;;28.60;99.90;;;;;;5073314;28;20364;-69
2022/06/28 01:31:09;;;;;;;42.42;30.80;;;28.50;99.90;;;;;;5057288;28;20064;-69
2022/06/28 01:33:38;;;;;;;45.92;33.20;;;28.60;99.90;;;;;;5051623;28;20126;-69
2022/06/28 01:36:06;;;;;;;60.63;43.55;;;28.70;99.90;;;;;;5051387;28;20029;-69
2022/06/28 01:38:34;;;;;;;55.55;37.78;;;28.90;99.90;;;;;;5049324;28;20500;-68
2022/06/28 01:41:01;;;;;;;60.17;45.83;;;28.90;99.90;;;;;;5051808;28;20533;-70
2022/06/28 01:43:29;;;;;;;57.28;37.35;;;29.00;99.90;;;;;;5051686;28;20381;-70
2022/06/28 01:45:57;;;;;;;132.27;76.43;;;29.00;99.90;;;;;;5051753;28;20013;-69
2022/06/28 01:48:24;;;;;;;93.43;57.90;;;29.10;99.90;;;;;;5052984;28;20036;-70
2022/06/28 01:50:52;;;;;;;66.38;37.10;;;29.20;99.90;;;;;;5053000;28;20112;-69
2022/06/28 01:53:20;;;;;;;79.63;44.25;;;29.30;99.90;;;;;;5051973;28;20068;-69
2022/06/28 01:55:47;;;;;;;62.83;36.42;;;29.30;99.90;;;;;;5051651;28;20013;-70
2022/06/28 01:58:14;;;;;;;93.75;48.38;;;29.40;99.90;;;;;;5052333;28;20021;-70
2022/06/28 02:00:41;;;;;;;44.13;27.00;;;29.40;99.90;;;;;;5052629;28;20025;-70
2022/06/28 02:03:09;;;;;;;40.47;27.85;;;29.50;99.90;;;;;;5052772;28;20029;-69
2022/06/28 02:05:35;;;;;;;41.13;26.98;;;29.50;99.90;;;;;;5046971;28;20119;-70
2022/06/28 02:08:02;;;;;;;38.13;26.88;;;29.50;99.90;;;;;;5051770;28;20029;-69
2022/06/28 02:10:29;;;;;;;38.92;27.98;;;29.60;99.90;;;;;;5052912;28;20035;-69
2022/06/28 02:12:56;;;;;;;36.30;26.17;;;29.60;99.90;;;;;;5052622;28;20023;-72
2022/06/28 02:15:22;;;;;;;41.47;27.73;;;29.70;99.90;;;;;;5052655;28;20025;-70
2022/06/28 02:17:49;;;;;;;36.75;27.02;;;29.70;99.90;;;;;;5052271;28;20021;-70
2022/06/28 02:20:16;;;;;;;37.38;25.65;;;29.70;99.90;;;;;;5052539;28;20021;-69
2022/06/28 02:22:42;;;;;;;37.92;25.30;;;29.60;99.90;;;;;;5052892;28;20021;-69
2022/06/28 02:25:09;;;;;;;35.20;25.25;;;29.70;99.90;;;;;;5034442;28;20029;-71
2022/06/28 02:27:36;;;;;;;37.47;24.70;;;29.60;99.90;;;;;;5034829;28;20458;-71
2022/06/28 02:30:03;;;;;;;31.33;23.67;;;29.70;99.90;;;;;;5051985;28;20017;-69
2022/06/28 02:32:30;;;;;;;39.25;26.80;;;29.80;99.90;;;;;;5047761;28;20043;-70
2022/06/28 02:40:30;;;;;;;30.70;20.65;;;30.10;99.90;;;;;;5047865;28;20483;-69
2022/06/28 02:42:59;;;;;;;24.98;18.02;;;30.20;99.90;;;;;;5051204;28;20402;-69
2022/06/28 02:45:28;;;;;;;29.27;21.52;;;30.30;99.90;;;;;;5052123;28;20028;-70
2022/06/28 02:47:55;;;;;;;26.38;21.15;;;30.30;99.90;;;;;;5055093;28;20044;-71
2022/06/28 02:50:23;;;;;;;33.30;21.30;;;30.30;99.90;;;;;;5055786;28;20029;-70
2022/06/28 02:52:49;;;;;;;84.65;23.63;;;30.30;99.90;;;;;;5055884;28;20099;-69
2022/06/28 02:55:16;;;;;;;27.85;19.50;;;30.40;99.90;;;;;;5055697;28;20033;-68
2022/06/28 03:00:17;;;;;;;26.15;18.35;;;30.50;99.90;;;;;;5055882;28;20021;-71
2022/06/28 03:02:45;;;;;;;33.22;17.77;;;30.40;99.90;;;;;;5055558;28;20452;-70
2022/06/28 03:05:16;;;;;;;33.08;22.65;;;30.40;99.90;;;;;;5055636;28;20040;-70
2022/06/28 03:07:43;;;;;;;84.05;58.15;;;30.50;99.90;;;;;;5055682;28;20051;-70
2022/06/28 03:10:11;;;;;;;212.27;133.13;;;30.50;99.90;;;;;;5055397;28;20025;-69
2022/06/28 03:12:39;;;;;;;29.25;22.38;;;30.50;99.90;;;;;;5055527;28;20021;-70
2022/06/28 03:15:07;;;;;;;68.78;51.00;;;30.40;99.90;;;;;;5055579;28;20017;-70
2022/06/28 03:17:33;;;;;;;30.35;22.60;;;30.50;99.90;;;;;;5055415;28;20016;-72
2022/06/28 03:20:00;;;;;;;26.10;17.40;;;30.50;99.90;;;;;;5047953;28;20417;-67
2022/06/28 03:22:27;;;;;;;32.42;19.33;;;30.50;99.90;;;;;;5039802;28;20022;-67
2022/06/28 03:24:56;;;;;;;33.95;18.90;;;30.60;99.90;;;;;;5055050;28;20111;-67
2022/06/28 03:27:22;;;;;;;21.88;15.10;;;30.70;99.90;;;;;;5046969;28;20352;-66
2022/06/28 03:29:51;;;;;;;27.52;17.17;;;30.80;99.90;;;;;;5035296;28;20409;-66
2022/06/28 03:32:18;;;;;;;21.23;16.35;;;30.90;99.90;;;;;;5034971;28;20029;-68
2022/06/28 03:34:45;;;;;;;17.70;13.48;;;30.90;99.90;;;;;;5034899;28;20073;-67
2022/06/28 03:37:12;;;;;;;18.60;13.57;;;31.10;99.90;;;;;;5041968;28;20480;-65
2022/06/28 03:39:38;;;;;;;21.35;13.88;;;31.00;99.90;;;;;;5045729;28;20112;-66
2022/06/28 03:42:05;;;;;;;16.20;12.75;;;31.00;99.50;;;;;;5034865;28;20029;-65
2022/06/28 03:44:32;;;;;;;19.90;12.90;;;31.00;99.90;;;;;;5034646;28;20026;-65
2022/06/28 03:46:59;;;;;;;22.48;11.95;;;31.00;99.90;;;;;;5034254;28;20451;-65
2022/06/28 03:49:26;;;;;;;18.83;12.50;;;31.20;99.20;;;;;;5034676;28;20529;-66
2022/06/28 03:51:52;;;;;;;16.40;11.80;;;31.30;98.20;;;;;;5034552;28;20462;-66
2022/06/28 03:54:19;;;;;;;22.55;13.43;;;31.20;98.90;;;;;;5034213;28;20552;-65
2022/06/28 03:56:47;;;;;;;20.33;13.68;;;31.30;98.40;;;;;;5034230;28;20125;-66
2022/06/28 03:59:13;;;;;;;20.00;13.32;;;31.30;98.80;;;;;;5034195;28;20461;-66
2022/06/28 04:01:40;;;;;;;16.88;11.80;;;31.30;98.00;;;;;;5034316;28;20025;-64
2022/06/28 04:04:07;;;;;;;15.30;11.55;;;31.30;97.20;;;;;;5034382;28;20128;-66
2022/06/28 04:06:34;;;;;;;17.92;13.18;;;31.30;98.30;;;;;;5034267;28;20505;-66
2022/06/28 04:09:00;;;;;;;19.00;11.98;;;31.30;98.30;;;;;;5034233;28;20029;-65
2022/06/28 04:11:27;;;;;;;17.92;12.60;;;31.40;97.70;;;;;;5044265;28;20107;-67
2022/06/28 04:13:54;;;;;;;15.85;12.38;;;31.40;97.50;;;;;;5051015;28;20028;-67
2022/06/28 04:16:23;;;;;;;17.90;11.40;;;31.40;98.70;;;;;;5050516;28;20120;-66
2022/06/28 04:18:52;;;;;;;17.58;12.45;;;31.50;97.10;;;;;;5053280;28;20020;-65
2022/06/28 04:21:20;;;;;;;26.27;13.27;;;31.60;97.80;;;;;;5050072;28;20021;-66
2022/06/28 04:23:47;;;;;;;16.95;12.63;;;31.80;97.10;;;;;;5051080;28;20029;-67
2022/06/28 04:26:14;;;;;;;21.55;13.82;;;31.80;97.60;;;;;;5054058;28;20056;-67
2022/06/28 04:28:43;;;;;;;20.67;14.10;;;31.80;97.00;;;;;;5052950;28;20386;-67
2022/06/28 04:31:12;;;;;;;22.58;13.10;;;31.90;96.30;;;;;;5053808;28;20028;-65
2022/06/28 04:33:39;;;;;;;22.50;14.80;;;31.90;96.00;;;;;;5053665;28;20041;-67
2022/06/28 04:36:06;;;;;;;24.85;14.98;;;32.00;96.90;;;;;;5053795;28;20107;-67
2022/06/28 04:38:33;;;;;;;19.50;14.75;;;32.00;95.70;;;;;;5053480;28;20032;-66
2022/06/28 04:41:02;;;;;;;18.45;12.88;;;32.00;96.00;;;;;;5053493;28;20032;-67
2022/06/28 04:43:28;;;;;;;20.15;13.32;;;32.10;96.00;;;;;;5052872;28;20053;-66
2022/06/28 04:45:55;;;;;;;28.15;15.07;;;32.10;96.10;;;;;;5053484;28;20092;-66
2022/06/28 04:48:23;;;;;;;17.48;12.80;;;32.20;96.40;;;;;;5052732;28;20033;-67
2022/06/28 04:50:49;;;;;;;22.77;13.68;;;32.20;96.20;;;;;;5051898;28;20478;-67
2022/06/28 04:53:16;;;;;;;23.60;14.07;;;32.20;95.50;;;;;;5052950;28;20035;-66
2022/06/28 04:55:43;;;;;;;18.48;12.73;;;32.30;94.90;;;;;;5052966;28;20565;-66
2022/06/28 04:58:10;;;;;;;21.73;12.57;;;32.30;94.80;;;;;;5053026;28;20104;-66
2022/06/28 05:00:36;;;;;;;23.35;12.85;;;32.40;94.50;;;;;;5052878;28;20025;-66
2022/06/28 05:03:03;;;;;;;20.13;12.40;;;32.40;94.50;;;;;;5052851;28;20021;-66
2022/06/28 05:05:30;;;;;;;16.65;12.57;;;32.40;94.10;;;;;;5052943;28;20013;-68
2022/06/28 05:07:57;;;;;;;20.85;12.75;;;32.50;93.60;;;;;;5052780;28;20055;-66
2022/06/28 05:10:23;;;;;;;20.15;13.13;;;32.50;93.50;;;;;;5051928;28;20592;-66
2022/06/28 05:12:50;;;;;;;23.58;11.65;;;32.50;93.30;;;;;;5053109;28;20390;-66
2022/06/28 05:15:17;;;;;;;14.15;9.85;;;32.60;92.60;;;;;;5051636;28;20029;-65
2022/06/28 05:17:43;;;;;;;15.35;10.38;;;32.50;92.00;;;;;;5033160;28;20030;-65
2022/06/28 05:20:11;;;;;;;16.55;10.38;;;32.60;92.30;;;;;;4998559;28;20164;-65
2022/06/28 05:22:37;;;;;;;15.10;10.15;;;32.70;92.30;;;;;;5033065;28;20030;-66
2022/06/28 05:25:05;;;;;;;16.80;10.60;;;32.70;92.20;;;;;;5032931;28;20032;-66
2022/06/28 05:27:32;;;;;;;14.98;9.68;;;32.70;90.80;;;;;;5033286;28;20021;-66
2022/06/28 05:29:59;;;;;;;14.55;9.68;;;32.80;90.70;;;;;;5033146;28;20026;-66
2022/06/28 05:32:25;;;;;;;17.20;9.95;;;32.70;91.20;;;;;;5032935;28;20034;-68
2022/06/28 05:34:52;;;;;;;17.33;9.63;;;32.80;91.00;;;;;;5033045;28;20084;-67
2022/06/28 05:37:21;;;;;;;12.73;9.68;;;32.90;91.00;;;;;;5049286;28;20052;-72
2022/06/28 05:39:47;;;;;;;16.30;9.40;;;32.80;90.50;;;;;;5052600;28;20021;-73
2022/06/28 05:42:14;;;;;;;18.15;10.13;;;32.70;90.50;;;;;;5052948;28;20037;-72
2022/06/28 05:44:41;;;;;;;14.20;9.00;;;32.70;90.30;;;;;;5052842;28;20100;-72
2022/06/28 05:47:08;;;;;;;19.40;10.18;;;32.80;90.50;;;;;;5034811;28;20093;-67
2022/06/28 05:49:34;;;;;;;15.05;10.10;;;32.90;91.50;;;;;;5053281;28;20457;-67
2022/06/28 05:52:01;;;;;;;17.83;11.43;;;32.90;90.70;;;;;;5052944;28;20535;-66
2022/06/28 05:54:28;;;;;;;15.27;9.80;;;32.90;91.30;;;;;;5052623;28;20507;-66
2022/06/28 05:56:54;;;;;;;14.50;9.10;;;32.90;91.20;;;;;;5052722;28;20025;-65
2022/06/28 05:59:21;;;;;;;19.00;11.05;;;33.00;90.90;;;;;;5052568;28;20040;-65
2022/06/28 06:01:48;;;;;;;13.20;9.93;;;33.00;91.20;;;;;;5051797;28;20057;-65
2022/06/28 06:04:14;;;;;;;14.65;10.95;;;33.00;90.80;;;;;;5052353;28;20017;-64
2022/06/28 06:06:41;;;;;;;15.77;11.90;;;33.10;91.50;;;;;;5052188;28;20374;-65
2022/06/28 06:09:08;;;;;;;19.65;11.60;;;33.20;91.00;;;;;;5049327;28;20029;-66
2022/06/28 06:11:34;;;;;;;14.23;10.05;;;33.20;91.20;;;;;;5051090;28;20043;-66
2022/06/28 06:14:01;;;;;;;14.93;10.30;;;33.20;91.30;;;;;;5052912;28;20025;-66
2022/06/28 06:16:28;;;;;;;15.52;10.55;;;33.30;91.20;;;;;;5050896;28;20036;-66
2022/06/28 06:18:54;;;;;;;14.93;8.90;;;33.30;90.60;;;;;;5052525;28;20032;-68
2022/06/28 06:21:21;;;;;;;12.25;8.75;;;33.40;89.80;;;;;;5054469;28;20452;-63
2022/06/28 06:23:48;;;;;;;13.65;8.68;;;33.40;89.60;;;;;;5056494;28;20024;-67
2022/06/28 06:26:14;;;;;;;10.75;8.20;;;33.40;88.60;;;;;;5056028;28;20025;-66
2022/06/28 06:28:41;;;;;;;12.02;9.05;;;33.50;87.40;;;;;;5056247;28;20462;-65
2022/06/28 06:31:09;;;;;;;12.02;9.80;;;33.40;88.50;;;;;;5056517;28;20025;-64
2022/06/28 06:33:36;;;;;;;14.35;10.27;;;33.50;89.40;;;;;;5056136;28;20052;-64
2022/06/28 06:36:04;;;;;;;16.42;11.07;;;33.50;88.30;;;;;;5055754;28;20029;-65
2022/06/28 06:38:31;;;;;;;14.82;9.93;;;33.60;88.50;;;;;;5036118;28;20037;-65
2022/06/28 06:40:59;;;;;;;12.18;9.07;;;33.60;89.50;;;;;;5036121;28;20522;-64
2022/06/28 06:43:28;;;;;;;12.43;9.23;;;33.70;87.90;;;;;;5036168;28;20028;-64
2022/06/28 06:45:55;;;;;;;13.65;9.98;;;33.70;88.00;;;;;;5035807;28;20486;-65
2022/06/28 06:48:22;;;;;;;15.38;10.35;;;33.80;88.00;;;;;;5004877;28;20034;-65
2022/06/28 06:50:49;;;;;;;14.85;10.10;;;33.80;87.00;;;;;;5054747;28;20029;-65
2022/06/28 06:53:19;;;;;;;17.38;10.75;;;33.80;87.60;;;;;;5051760;28;20174;-65
2022/06/28 06:55:47;;;;;;;19.48;10.57;;;33.90;88.40;;;;;;5053031;28;20100;-66
2022/06/28 06:58:14;;;;;;;18.67;13.60;;;34.10;88.40;;;;;;5052437;28;20053;-67
2022/06/28 07:00:41;;;;;;;19.10;11.52;;;34.00;87.20;;;;;;5054751;28;20029;-67
2022/06/28 07:03:08;;;;;;;15.90;10.48;;;34.10;86.70;;;;;;5054880;28;20017;-68
2022/06/28 07:05:35;;;;;;;14.73;10.85;;;34.00;87.40;;;;;;5054251;28;20013;-69
2022/06/28 07:08:03;;;;;;;17.00;10.73;;;34.10;87.20;;;;;;5055030;28;20497;-65
2022/06/28 07:10:30;;;;;;;16.85;11.25;;;34.20;85.70;;;;;;5054994;28;20103;-68
2022/06/28 07:12:58;;;;;;;19.58;13.70;;;34.10;85.60;;;;;;5054951;28;20025;-68
2022/06/28 07:15:24;;;;;;;21.88;12.85;;;34.10;86.00;;;;;;5055051;28;20020;-66
2022/06/28 07:17:51;;;;;;;15.57;11.18;;;34.30;86.30;;;;;;5055420;28;20035;-69
2022/06/28 07:20:18;;;;;;;13.68;10.90;;;34.50;85.40;;;;;;5055076;28;20021;-66
2022/06/28 07:22:44;;;;;;;17.30;10.40;;;34.30;85.90;;;;;;5055238;28;20017;-67
2022/06/28 07:25:13;;;;;;;23.10;11.10;;;34.20;85.00;;;;;;5051696;28;20025;-66
2022/06/28 07:27:41;;;;;;;14.18;10.85;;;34.30;86.40;;;;;;5054557;28;20025;-66
2022/06/28 07:30:09;;;;;;;15.95;11.13;;;34.20;84.60;;;;;;5054352;28;20017;-66
2022/06/28 07:32:36;;;;;;;19.08;11.32;;;34.10;85.10;;;;;;5053236;28;20092;-67
2022/06/28 07:35:03;;;;;;;28.67;18.02;;;34.10;85.90;;;;;;5054023;28;20052;-67
2022/06/28 07:37:30;;;;;;;17.85;10.65;;;34.20;84.50;;;;;;5054113;28;20477;-65
2022/06/28 07:39:56;;;;;;;13.43;9.35;;;34.20;82.60;;;;;;5054792;28;20024;-66
2022/06/28 07:42:23;;;;;;;13.40;10.50;;;34.20;83.10;;;;;;5053573;28;20041;-67
2022/06/28 07:44:50;;;;;;;15.18;9.45;;;34.30;84.20;;;;;;5055211;28;20017;-66
2022/06/28 07:47:16;;;;;;;14.68;9.82;;;34.30;84.00;;;;;;5055034;28;20103;-68
2022/06/28 07:52:38;;;;;;;17.00;12.25;;;34.50;83.70;;;;;;5054338;28;20029;-68
2022/06/28 07:55:07;;;;;;;22.25;13.55;;;34.40;84.70;;;;;;5054572;28;20031;-66
2022/06/28 07:57:34;;;;;;;15.23;9.93;;;34.40;83.80;;;;;;5054704;28;20036;-67
2022/06/28 08:00:01;;;;;;;13.63;10.32;;;34.40;83.20;;;;;;5054945;28;20029;-68
2022/06/28 08:02:28;;;;;;;16.80;9.68;;;34.50;82.60;;;;;;5054366;28;20402;-66
2022/06/28 08:04:55;;;;;;;14.65;11.18;;;34.40;82.30;;;;;;5054035;28;20025;-66
2022/06/28 08:07:22;;;;;;;15.73;10.35;;;34.40;81.10;;;;;;5054401;28;20032;-67
2022/06/28 08:09:49;;;;;;;22.40;11.75;;;34.40;82.20;;;;;;5054405;28;20040;-67
2022/06/28 08:12:16;;;;;;;18.77;12.07;;;34.30;82.50;;;;;;5054315;28;20069;-68
2022/06/28 08:14:43;;;;;;;16.92;10.10;;;34.30;81.60;;;;;;5053516;28;20025;-67
2022/06/28 08:17:09;;;;;;;16.77;10.75;;;34.30;82.90;;;;;;5054172;28;20056;-67
2022/06/28 08:19:36;;;;;;;16.38;11.23;;;34.20;83.90;;;;;;5054094;28;20108;-66
2022/06/28 08:22:03;;;;;;;22.38;12.85;;;34.20;84.10;;;;;;5053989;28;20466;-66
2022/06/28 08:24:31;;;;;;;20.35;13.07;;;34.20;84.00;;;;;;5054438;28;20017;-66
2022/06/28 08:26:58;;;;;;;21.85;13.60;;;34.20;83.90;;;;;;5054243;28;20020;-68
2022/06/28 08:29:34;;;;;;;23.52;15.00;;;34.20;84.10;;;;;;5052663;28;20496;-67
2022/06/28 08:32:03;;;;;;;21.65;14.88;;;34.30;84.50;;;;;;5053945;28;20037;-68
2022/06/28 08:34:39;;;;;;;27.58;15.52;;;34.50;85.10;;;;;;5052725;28;20048;-69
2022/06/28 08:37:06;;;;;;;26.48;14.40;;;34.50;84.60;;;;;;5049749;28;20071;-67
2022/06/28 08:39:36;;;;;;;26.40;15.68;;;34.50;83.90;;;;;;5054220;28;20021;-69
2022/06/28 08:42:04;;;;;;;27.20;16.60;;;34.50;83.50;;;;;;5053355;28;20025;-67
2022/06/28 08:44:34;;;;;;;38.22;16.85;;;34.30;85.20;;;;;;5052798;28;20054;-68
2022/06/28 08:47:02;;;;;;;30.95;19.40;;;34.30;85.50;;;;;;5052910;28;20363;-66
2022/06/28 08:49:51;;;;;;;35.25;18.38;;;34.30;85.50;;;;;;5050052;28;20068;-67
2022/06/28 08:52:21;;;;;;;21.00;14.27;;;34.30;83.40;;;;;;5053728;28;20028;-68
2022/06/28 08:54:49;;;;;;;23.75;15.02;;;34.30;82.70;;;;;;5053267;28;20021;-68
2022/06/28 08:57:18;;;;;;;27.52;15.27;;;34.30;84.20;;;;;;5053259;28;20033;-67
2022/06/28 08:59:46;;;;;;;27.10;15.70;;;34.30;85.00;;;;;;5052935;28;20021;-68
2022/06/28 09:02:15;;;;;;;23.92;14.65;;;34.30;84.70;;;;;;5048626;28;20553;-67
2022/06/28 09:04:48;;;;;;;23.20;15.90;;;34.30;85.20;;;;;;5050236;28;20021;-67
2022/06/28 09:07:15;;;;;;;30.88;14.60;;;34.20;82.70;;;;;;5052721;28;20025;-66
2022/06/28 09:09:42;;;;;;;27.80;17.92;;;34.20;82.90;;;;;;5050415;28;20039;-65
2022/06/28 09:12:09;;;;;;;27.55;14.63;;;34.20;83.40;;;;;;5052799;28;20385;-65
2022/06/28 09:14:36;;;;;;;23.52;14.75;;;34.20;83.80;;;;;;5052509;28;20025;-64
2022/06/28 09:17:25;;;;;;;24.17;16.70;;;34.10;84.00;;;;;;5052652;28;20088;-64
2022/06/28 09:20:07;;;;;;;30.23;18.60;;;34.10;82.80;;;;;;5050634;28;20033;-66
2022/06/28 09:22:36;;;;;;;22.23;15.13;;;33.80;83.80;;;;;;5051868;28;20069;-67
2022/06/28 09:25:09;;;;;;;19.42;14.80;;;33.90;84.10;;;;;;5050288;28;20025;-66
2022/06/28 09:27:38;;;;;;;25.90;14.80;;;33.80;84.30;;;;;;5052464;28;20025;-67
2022/06/28 09:30:10;;;;;;;21.52;15.23;;;33.70;85.10;;;;;;5049746;28;20048;-67
2022/06/28 09:32:38;;;;;;;21.85;13.73;;;33.70;84.80;;;;;;5052440;28;20020;-65
2022/06/28 09:35:09;;;;;;;16.20;11.77;;;33.60;82.80;;;;;;5052580;28;20106;-65
2022/06/28 09:37:41;;;;;;;15.88;11.93;;;33.60;83.80;;;;;;5052105;28;20044;-66
2022/06/28 09:40:16;;;;;;;20.83;13.15;;;33.60;82.80;;;;;;5053283;28;20079;-66
2022/06/28 09:42:45;;;;;;;14.55;11.70;;;33.60;83.10;;;;;;5053186;28;20478;-66
2022/06/28 09:45:15;;;;;;;15.45;11.13;;;33.50;83.00;;;;;;5052592;28;20045;-64
2022/06/28 09:47:44;;;;;;;18.67;12.95;;;33.50;83.20;;;;;;5050663;28;20104;-67
2022/06/28 09:50:12;;;;;;;21.58;16.23;;;33.50;82.60;;;;;;5050155;28;20028;-65
2022/06/28 09:52:44;;;;;;;24.77;15.70;;;33.40;83.00;;;;;;5051146;28;20432;-68
2022/06/28 09:55:16;;;;;;;21.65;12.90;;;33.40;83.40;;;;;;5053140;28;20083;-66
2022/06/28 09:58:02;;;;;;;21.50;15.15;;;33.40;83.90;;;;;;5057188;28;20031;-66
2022/06/28 10:00:30;;;;;;;35.03;19.38;;;33.40;83.70;;;;;;5057112;28;20048;-67
2022/06/28 10:02:58;;;;;;;39.88;21.85;;;33.40;84.50;;;;;;5057036;28;20466;-66
2022/06/28 10:05:26;;;;;;;39.53;27.45;;;33.40;84.10;;;;;;5055696;28;20025;-70
2022/06/28 10:07:52;;;;;;;53.42;30.63;;;33.30;84.00;;;;;;5051876;28;20481;-66
2022/06/28 10:10:22;;;;;;;33.40;22.33;;;33.30;85.60;;;;;;5056345;28;20408;-67
2022/06/28 10:15:32;;;;;;;61.85;33.00;;;33.20;85.40;;;;;;5056831;28;20108;-67
2022/06/28 10:18:01;;;;;;;33.38;21.27;;;33.20;84.40;;;;;;5056905;28;20074;-66
2022/06/28 10:20:31;;;;;;;34.28;21.25;;;33.10;84.20;;;;;;5056233;28;20020;-65
2022/06/28 10:23:27;;;;;;;57.30;38.00;;;33.10;84.40;;;;;;5056706;28;20036;-66
2022/06/28 10:26:11;;;;;;;68.60;46.20;;;33.00;85.60;;;;;;5056537;28;20155;-66
2022/06/28 10:28:47;;;;;;;74.40;49.05;;;33.00;87.00;;;;;;5055419;28;20033;-67
2022/06/28 10:31:23;;;;;;;89.72;52.33;;;33.00;85.70;;;;;;5055899;28;20040;-67
2022/06/28 10:33:58;;;;;;;123.80;71.22;;;33.00;85.50;;;;;;5056136;28;20052;-67
2022/06/28 10:36:27;;;;;;;76.25;43.65;;;32.90;85.10;;;;;;5056027;28;20025;-66
2022/06/28 10:39:15;;;;;;;61.95;33.78;;;32.90;84.80;;;;;;5056259;28;20056;-66
2022/06/28 10:41:44;;;;;;;42.78;25.85;;;32.90;85.30;;;;;;5055930;28;20119;-67
2022/06/28 10:44:16;;;;;;;97.68;60.03;;;32.90;84.80;;;;;;5056076;28;20025;-67
2022/06/28 10:46:52;;;;;;;100.20;56.28;;;32.90;85.50;;;;;;5053994;28;20021;-67
2022/06/28 10:49:20;;;;;;;69.28;43.08;;;32.90;86.10;;;;;;5053933;28;20025;-67
2022/06/28 10:52:08;;;;;;;54.47;35.58;;;32.80;85.80;;;;;;5053956;28;20497;-66
2022/06/28 10:54:35;;;;;;;53.78;31.33;;;32.80;86.70;;;;;;5054057;28;20029;-67
2022/06/28 10:57:20;;;;;;;47.63;30.60;;;32.70;86.50;;;;;;5053899;28;20477;-67
2022/06/28 10:59:49;;;;;;;64.68;39.22;;;32.70;87.70;;;;;;5053852;28;20037;-67
2022/06/28 11:02:17;;;;;;;74.50;47.75;;;32.70;87.60;;;;;;5055682;28;20048;-67
2022/06/28 11:04:45;;;;;;;48.33;31.45;;;32.60;87.00;;;;;;5055644;28;20035;-67
2022/06/28 11:07:24;;;;;;;44.45;27.77;;;32.60;86.90;;;;;;5054452;28;20021;-67
2022/06/28 11:10:09;;;;;;;57.13;34.22;;;32.60;87.20;;;;;;5055700;28;20021;-67
2022/06/28 11:12:38;;;;;;;65.85;39.50;;;32.50;86.80;;;;;;5055690;28;20025;-67
2022/06/28 11:15:08;;;;;;;59.38;33.65;;;32.50;87.50;;;;;;5055381;28;20021;-66
2022/06/28 11:17:38;;;;;;;45.58;31.30;;;32.50;88.10;;;;;;5055292;28;20028;-67
2022/06/28 11:20:11;;;;;;;52.25;30.27;;;32.40;87.70;;;;;;5055337;28;20032;-67
2022/06/28 11:22:42;;;;;;;48.65;31.52;;;32.40;88.00;;;;;;5055259;28;20028;-67
2022/06/28 11:25:12;;;;;;;43.75;29.27;;;32.40;89.20;;;;;;5055294;28;20025;-67
2022/06/28 11:27:53;;;;;;;43.63;29.15;;;32.40;89.40;;;;;;5055440;28;20028;-67
2022/06/28 11:30:23;;;;;;;56.40;31.23;;;32.30;88.90;;;;;;5055074;28;20028;-67
2022/06/28 11:32:53;;;;;;;53.60;32.80;;;32.30;89.60;;;;;;5054860;28;20385;-67
2022/06/28 11:35:24;;;;;;;50.30;31.95;;;32.30;89.50;;;;;;5054902;28;20029;-67
2022/06/28 11:37:52;;;;;;;49.93;33.03;;;32.30;89.20;;;;;;4985274;28;20037;-67
2022/06/28 11:40:21;;;;;;;48.10;32.45;;;32.20;89.80;;;;;;5034998;28;20027;-67
2022/06/28 11:42:59;;;;;;;50.08;32.47;;;32.20;90.40;;;;;;5034771;28;20108;-66
2022/06/28 11:45:30;;;;;;;51.20;32.38;;;32.20;89.90;;;;;;5034946;28;20033;-67
2022/06/28 11:48:03;;;;;;;43.92;29.27;;;32.20;90.00;;;;;;5034890;28;20482;-66
2022/06/28 11:50:42;;;;;;;51.88;33.10;;;32.20;90.20;;;;;;5035193;28;20036;-67
2022/06/28 11:53:10;;;;;;;57.85;33.53;;;32.10;90.30;;;;;;5034779;28;20441;-66
2022/06/28 11:55:52;;;;;;;53.67;33.35;;;32.10;90.20;;;;;;5034513;28;20026;-67
2022/06/28 11:58:21;;;;;;;47.95;30.60;;;32.10;90.40;;;;;;5034831;28;20021;-73
2022/06/28 12:01:10;;;;;;;58.85;33.25;;;32.00;90.00;;;;;;5049634;28;20489;-66
2022/06/28 12:03:47;;;;;;;54.50;31.13;;;32.00;90.10;;;;;;5034555;28;20029;-67
2022/06/28 12:06:20;;;;;;;52.53;33.42;;;32.00;90.10;;;;;;5034515;28;20112;-66
2022/06/28 12:09:03;;;;;;;62.40;33.78;;;31.90;90.00;;;;;;5034429;28;20021;-67
2022/06/28 12:11:30;;;;;;;59.97;36.75;;;31.90;90.30;;;;;;5034441;28;20060;-67
2022/06/28 12:14:05;;;;;;;59.80;34.78;;;31.90;90.20;;;;;;5034397;28;20036;-67
2022/06/28 12:16:33;;;;;;;52.65;32.22;;;31.90;90.10;;;;;;5034197;28;20036;-66
2022/06/28 12:19:01;;;;;;;43.95;28.67;;;31.80;90.80;;;;;;5034101;28;20065;-67
2022/06/28 12:21:28;;;;;;;41.42;24.45;;;31.70;92.40;;;;;;5034182;28;20021;-67
2022/06/28 12:24:00;;;;;;;35.78;21.88;;;31.50;93.70;;;;;;5034028;28;20392;-67
2022/06/28 12:26:38;;;;;;;25.23;16.83;;;31.40;94.70;;;;;;5034212;28;20033;-67
2022/06/28 12:29:04;;;;;;;30.67;17.90;;;31.30;95.50;;;;;;5033886;28;20368;-66
2022/06/28 12:31:31;;;;;;;20.63;13.23;;;31.20;95.80;;;;;;5034070;28;20018;-67
2022/06/28 12:33:58;;;;;;;22.65;13.18;;;31.00;96.00;;;;;;5034051;28;20515;-67
2022/06/28 12:36:25;;;;;;;20.58;13.57;;;30.90;96.50;;;;;;5033849;28;20397;-67
2022/06/28 12:38:52;;;;;;;20.58;12.50;;;30.90;96.90;;;;;;5034069;28;20032;-67
2022/06/28 12:41:28;;;;;;;23.90;15.07;;;30.80;97.20;;;;;;5033737;28;20057;-67
2022/06/28 12:43:55;;;;;;;21.60;14.10;;;30.80;97.50;;;;;;5033711;28;20030;-67
2022/06/28 12:46:22;;;;;;;28.42;14.50;;;30.70;98.00;;;;;;5033904;28;20382;-66
2022/06/28 12:48:49;;;;;;;18.88;13.13;;;30.60;98.50;;;;;;5039025;28;20016;-67
2022/06/28 12:51:16;;;;;;;19.25;12.48;;;30.50;99.10;;;;;;5053231;28;20032;-67
2022/06/28 12:53:42;;;;;;;18.88;12.80;;;30.50;99.50;;;;;;5053387;28;20029;-67